FYI619 LKPR-EDDH
Flight info
| Callsign | FYI619 |
|---|---|
| Flight time | 0h 59m |
| Altitude | 36000 |
| Route | VENOX4B/30 VENOX DCT DEKOV Y621 ESLOR M748 RARUP RARUP6A |
| Aircraft | A320/M-SDE3FGHIRWY/LB1 |
Departure
| Time | 2026-05-07 19:11 |
|---|---|
| Airport | Václav Havel Airport Prague (LKPR) |
Arrival
| Time | 2026-05-07 20:11 |
|---|---|
| Airport | Hamburg Helmut Schmidt Airport (EDDH) |
| Time | Latitude | Longitude | Altitude | Speed | Heading |
|---|---|---|---|---|---|
| 2026-05-07 18:28 | 50.10485 | 14.26477 | 1178 ft | 0 kts | 34° |
| 2026-05-07 18:58 | 50.10481 | 14.26473 | 1177 ft | 4 kts | 35° |
| 2026-05-07 18:58 | 50.10459 | 14.26449 | 1173 ft | 4 kts | 27° |
| 2026-05-07 18:58 | 50.10442 | 14.26440 | 1172 ft | 3 kts | 308° |
| 2026-05-07 18:59 | 50.10440 | 14.26444 | 1172 ft | 0 kts | 304° |
| 2026-05-07 19:01 | 50.10441 | 14.26440 | 1178 ft | 3 kts | 304° |
| 2026-05-07 19:01 | 50.10457 | 14.26408 | 1176 ft | 4 kts | 307° |
| 2026-05-07 19:01 | 50.10494 | 14.26334 | 1176 ft | 11 kts | 307° |
| 2026-05-07 19:02 | 50.10542 | 14.26208 | 1176 ft | 17 kts | 294° |
| 2026-05-07 19:02 | 50.10576 | 14.26034 | 1178 ft | 17 kts | 246° |
| 2026-05-07 19:02 | 50.10486 | 14.26009 | 1185 ft | 16 kts | 139° |
| 2026-05-07 19:02 | 50.10403 | 14.26180 | 1188 ft | 21 kts | 124° |
| 2026-05-07 19:03 | 50.10313 | 14.26364 | 1191 ft | 22 kts | 128° |
| 2026-05-07 19:03 | 50.10222 | 14.26555 | 1195 ft | 22 kts | 127° |
| 2026-05-07 19:03 | 50.10128 | 14.26751 | 1198 ft | 23 kts | 127° |
| 2026-05-07 19:03 | 50.10035 | 14.26941 | 1203 ft | 21 kts | 127° |
| 2026-05-07 19:04 | 50.09949 | 14.27119 | 1206 ft | 20 kts | 126° |
| 2026-05-07 19:04 | 50.09849 | 14.27322 | 1205 ft | 28 kts | 129° |
| 2026-05-07 19:04 | 50.09704 | 14.27545 | 1207 ft | 29 kts | 135° |
| 2026-05-07 19:04 | 50.09569 | 14.27749 | 1210 ft | 21 kts | 136° |
| 2026-05-07 19:05 | 50.09474 | 14.27894 | 1215 ft | 17 kts | 135° |
| 2026-05-07 19:05 | 50.09400 | 14.28012 | 1218 ft | 13 kts | 134° |
| 2026-05-07 19:05 | 50.09338 | 14.28107 | 1222 ft | 13 kts | 135° |
| 2026-05-07 19:05 | 50.09300 | 14.28166 | 1224 ft | 0 kts | 135° |
| 2026-05-07 19:06 | 50.09241 | 14.28256 | 1227 ft | 18 kts | 140° |
| 2026-05-07 19:06 | 50.09214 | 14.28282 | 1228 ft | 0 kts | 155° |
| 2026-05-07 19:08 | 50.09155 | 14.28276 | 1247 ft | 9 kts | 205° |
| 2026-05-07 19:09 | 50.09151 | 14.28273 | 1234 ft | 0 kts | 207° |
| 2026-05-07 19:09 | 50.09145 | 14.28267 | 1245 ft | 3 kts | 210° |
| 2026-05-07 19:10 | 50.09115 | 14.28226 | 1245 ft | 5 kts | 227° |
| 2026-05-07 19:10 | 50.09078 | 14.28123 | 1234 ft | 16 kts | 270° |
| 2026-05-07 19:10 | 50.09109 | 14.28045 | 1233 ft | 4 kts | 308° |
| 2026-05-07 19:10 | 50.09165 | 14.27934 | 1233 ft | 40 kts | 306° |
| 2026-05-07 19:11 | 50.09480 | 14.27270 | 1215 ft | 109 kts | 307° |
| 2026-05-07 19:11 | 50.10048 | 14.26111 | 1222 ft | 158 kts | 308° |
| 2026-05-07 19:11 | 50.10710 | 14.24740 | 1853 ft | 160 kts | 308° |
| 2026-05-07 19:11 | 50.11381 | 14.23344 | 2648 ft | 160 kts | 308° |
| 2026-05-07 19:12 | 50.12055 | 14.21939 | 3274 ft | 169 kts | 308° |
| 2026-05-07 19:12 | 50.12799 | 14.20396 | 3703 ft | 187 kts | 308° |
| 2026-05-07 19:12 | 50.13629 | 14.18675 | 4055 ft | 211 kts | 308° |
| 2026-05-07 19:12 | 50.14560 | 14.16746 | 4522 ft | 235 kts | 307° |
| 2026-05-07 19:13 | 50.15721 | 14.14325 | 4943 ft | 258 kts | 306° |
| 2026-05-07 19:13 | 50.16667 | 14.12356 | 4995 ft | 259 kts | 306° |
| 2026-05-07 19:13 | 50.17749 | 14.10105 | 5013 ft | 259 kts | 306° |
| 2026-05-07 19:13 | 50.18830 | 14.07856 | 5045 ft | 261 kts | 306° |
| 2026-05-07 19:14 | 50.19928 | 14.05574 | 5923 ft | 264 kts | 306° |
| 2026-05-07 19:14 | 50.21033 | 14.03268 | 6862 ft | 267 kts | 306° |
| 2026-05-07 19:14 | 50.22287 | 14.01109 | 7721 ft | 273 kts | 320° |
| 2026-05-07 19:14 | 50.23926 | 13.99570 | 8573 ft | 279 kts | 336° |
| 2026-05-07 19:15 | 50.25828 | 13.98842 | 9440 ft | 286 kts | 354° |
| 2026-05-07 19:15 | 50.27833 | 13.98689 | 10240 ft | 293 kts | 356° |
| 2026-05-07 19:15 | 50.29952 | 13.98542 | 10536 ft | 316 kts | 356° |
| 2026-05-07 19:15 | 50.32223 | 13.98733 | 10844 ft | 338 kts | 13° |
| 2026-05-07 19:16 | 50.34470 | 13.99993 | 11470 ft | 347 kts | 20° |
| 2026-05-07 19:16 | 50.36729 | 14.01411 | 12209 ft | 352 kts | 21° |
| 2026-05-07 19:16 | 50.39005 | 14.02860 | 12979 ft | 355 kts | 21° |
| 2026-05-07 19:16 | 50.41308 | 14.04334 | 13708 ft | 359 kts | 21° |
| 2026-05-07 19:17 | 50.43637 | 14.05823 | 14370 ft | 363 kts | 21° |
| 2026-05-07 19:17 | 50.45986 | 14.07322 | 15040 ft | 366 kts | 21° |
| 2026-05-07 19:17 | 50.48356 | 14.08834 | 15689 ft | 370 kts | 21° |
| 2026-05-07 19:17 | 50.50749 | 14.10361 | 15975 ft | 372 kts | 21° |
| 2026-05-07 19:18 | 50.53144 | 14.11893 | 16039 ft | 372 kts | 21° |
| 2026-05-07 19:18 | 50.55574 | 14.13275 | 16067 ft | 372 kts | 13° |
| 2026-05-07 19:18 | 50.58125 | 14.14003 | 16664 ft | 374 kts | 7° |
| 2026-05-07 19:18 | 50.60704 | 14.14600 | 17356 ft | 376 kts | 7° |
| 2026-05-07 19:19 | 50.63267 | 14.15218 | 17999 ft | 379 kts | 7° |
| 2026-05-07 19:19 | 50.65883 | 14.15856 | 18600 ft | 382 kts | 7° |
| 2026-05-07 19:19 | 50.68521 | 14.16499 | 19168 ft | 385 kts | 7° |
| 2026-05-07 19:19 | 50.71173 | 14.17143 | 19720 ft | 387 kts | 7° |
| 2026-05-07 19:20 | 50.73843 | 14.17789 | 20253 ft | 390 kts | 8° |
| 2026-05-07 19:20 | 50.76534 | 14.18442 | 20788 ft | 393 kts | 7° |
| 2026-05-07 19:20 | 50.79224 | 14.19093 | 21329 ft | 395 kts | 8° |
| 2026-05-07 19:20 | 50.81948 | 14.19754 | 21880 ft | 397 kts | 8° |
| 2026-05-07 19:21 | 50.84681 | 14.20418 | 22446 ft | 398 kts | 8° |
| 2026-05-07 19:21 | 50.87419 | 14.21079 | 23005 ft | 399 kts | 7° |
| 2026-05-07 19:21 | 50.90326 | 14.21364 | 23537 ft | 400 kts | 357° |
| 2026-05-07 19:21 | 50.92970 | 14.20940 | 23970 ft | 401 kts | 351° |
| 2026-05-07 19:22 | 50.95730 | 14.20322 | 24373 ft | 404 kts | 352° |
| 2026-05-07 19:22 | 50.98535 | 14.19704 | 24728 ft | 408 kts | 352° |
| 2026-05-07 19:22 | 51.01355 | 14.19084 | 25109 ft | 410 kts | 352° |
| 2026-05-07 19:22 | 51.04300 | 14.18092 | 25524 ft | 413 kts | 342° |
| 2026-05-07 19:23 | 51.06831 | 14.16485 | 25876 ft | 415 kts | 333° |
| 2026-05-07 19:23 | 51.09302 | 14.14084 | 26243 ft | 418 kts | 323° |
| 2026-05-07 19:23 | 51.11537 | 14.11108 | 26598 ft | 421 kts | 319° |
| 2026-05-07 19:23 | 51.13749 | 14.08042 | 26972 ft | 423 kts | 319° |
| 2026-05-07 19:24 | 51.15973 | 14.04960 | 27371 ft | 425 kts | 319° |
| 2026-05-07 19:24 | 51.18202 | 14.01862 | 27763 ft | 426 kts | 319° |
| 2026-05-07 19:24 | 51.20443 | 13.98742 | 28122 ft | 429 kts | 319° |
| 2026-05-07 19:24 | 51.22697 | 13.95601 | 28469 ft | 431 kts | 319° |
| 2026-05-07 19:25 | 51.24958 | 13.92445 | 28842 ft | 433 kts | 319° |
| 2026-05-07 19:25 | 51.27202 | 13.89314 | 29170 ft | 435 kts | 319° |
| 2026-05-07 19:25 | 51.29514 | 13.86085 | 29490 ft | 437 kts | 319° |
| 2026-05-07 19:25 | 51.31776 | 13.82920 | 29817 ft | 439 kts | 319° |
| 2026-05-07 19:26 | 51.34081 | 13.79690 | 30087 ft | 442 kts | 319° |
| 2026-05-07 19:26 | 51.36397 | 13.76439 | 30352 ft | 444 kts | 319° |
| 2026-05-07 19:26 | 51.38720 | 13.73174 | 30616 ft | 445 kts | 318° |
| 2026-05-07 19:26 | 51.41055 | 13.69890 | 30831 ft | 448 kts | 318° |
| 2026-05-07 19:27 | 51.43397 | 13.66586 | 31132 ft | 449 kts | 318° |
| 2026-05-07 19:27 | 51.45793 | 13.63197 | 31447 ft | 449 kts | 318° |
| 2026-05-07 19:27 | 51.48080 | 13.59955 | 31752 ft | 449 kts | 318° |
| 2026-05-07 19:27 | 51.50421 | 13.56639 | 32066 ft | 449 kts | 318° |
| 2026-05-07 19:28 | 51.52765 | 13.53319 | 32444 ft | 448 kts | 318° |
| 2026-05-07 19:28 | 51.55100 | 13.50010 | 32806 ft | 448 kts | 318° |
| 2026-05-07 19:28 | 51.57434 | 13.46698 | 33113 ft | 448 kts | 318° |
| 2026-05-07 19:28 | 51.59771 | 13.43377 | 33426 ft | 448 kts | 317° |
| 2026-05-07 19:29 | 51.62107 | 13.40050 | 33740 ft | 449 kts | 317° |
| 2026-05-07 19:29 | 51.64442 | 13.36718 | 34060 ft | 449 kts | 317° |
| 2026-05-07 19:29 | 51.66778 | 13.33378 | 34327 ft | 449 kts | 317° |
| 2026-05-07 19:29 | 51.69112 | 13.30037 | 34591 ft | 449 kts | 317° |
| 2026-05-07 19:30 | 51.71450 | 13.26683 | 34849 ft | 450 kts | 317° |
| 2026-05-07 19:30 | 51.73782 | 13.23324 | 35104 ft | 450 kts | 317° |
| 2026-05-07 19:30 | 51.76114 | 13.19955 | 35358 ft | 450 kts | 317° |
| 2026-05-07 19:30 | 51.78444 | 13.16588 | 35631 ft | 449 kts | 317° |
| 2026-05-07 19:31 | 51.80772 | 13.13226 | 35911 ft | 449 kts | 317° |
| 2026-05-07 19:31 | 51.83102 | 13.09858 | 36045 ft | 450 kts | 317° |
| 2026-05-07 19:31 | 51.87762 | 13.03111 | 36095 ft | 449 kts | 317° |
| 2026-05-07 19:32 | 51.92418 | 12.96360 | 36098 ft | 449 kts | 317° |
| 2026-05-07 19:32 | 51.97064 | 12.89602 | 36098 ft | 449 kts | 316° |
| 2026-05-07 19:33 | 52.01684 | 12.82850 | 36095 ft | 453 kts | 316° |
| 2026-05-07 19:33 | 52.06420 | 12.75907 | 36098 ft | 463 kts | 316° |
| 2026-05-07 19:34 | 52.11209 | 12.68852 | 36098 ft | 465 kts | 316° |
| 2026-05-07 19:34 | 52.16007 | 12.61772 | 36100 ft | 466 kts | 316° |
| 2026-05-07 19:35 | 52.20807 | 12.54681 | 36101 ft | 466 kts | 316° |
| 2026-05-07 19:35 | 52.25604 | 12.47574 | 36100 ft | 466 kts | 316° |
| 2026-05-07 19:36 | 52.30196 | 12.40128 | 36106 ft | 465 kts | 312° |
| 2026-05-07 19:36 | 52.34672 | 12.32496 | 36111 ft | 465 kts | 316° |
| 2026-05-07 19:37 | 52.39459 | 12.25367 | 36112 ft | 465 kts | 317° |
| 2026-05-07 19:37 | 52.44326 | 12.18382 | 36112 ft | 465 kts | 318° |
| 2026-05-07 19:38 | 52.49205 | 12.11400 | 36079 ft | 465 kts | 317° |
| 2026-05-07 19:38 | 52.51626 | 12.07909 | 35516 ft | 463 kts | 317° |
| 2026-05-07 19:38 | 52.54040 | 12.04409 | 34893 ft | 461 kts | 318° |
| 2026-05-07 19:39 | 52.56422 | 12.00943 | 34427 ft | 454 kts | 318° |
| 2026-05-07 19:39 | 52.58772 | 11.97511 | 33933 ft | 449 kts | 318° |
| 2026-05-07 19:39 | 52.61096 | 11.94113 | 33372 ft | 445 kts | 318° |
| 2026-05-07 19:39 | 52.62624 | 11.91882 | 33013 ft | 441 kts | 318° |
| 2026-05-07 19:40 | 52.65705 | 11.87560 | 32329 ft | 426 kts | 321° |
| 2026-05-07 19:40 | 52.68008 | 11.84579 | 31563 ft | 416 kts | 322° |
| 2026-05-07 19:40 | 52.70303 | 11.81734 | 30768 ft | 409 kts | 322° |
| 2026-05-07 19:40 | 52.72572 | 11.78967 | 29998 ft | 402 kts | 323° |
| 2026-05-07 19:41 | 52.74796 | 11.76242 | 29102 ft | 395 kts | 322° |
| 2026-05-07 19:41 | 52.76977 | 11.73537 | 28226 ft | 389 kts | 322° |
| 2026-05-07 19:41 | 52.79110 | 11.70856 | 27373 ft | 383 kts | 322° |
| 2026-05-07 19:41 | 52.81207 | 11.68192 | 26550 ft | 377 kts | 322° |
| 2026-05-07 19:42 | 52.83244 | 11.65588 | 25755 ft | 372 kts | 322° |
| 2026-05-07 19:42 | 52.85275 | 11.62986 | 25004 ft | 366 kts | 321° |
| 2026-05-07 19:42 | 52.87272 | 11.60423 | 24253 ft | 361 kts | 321° |
| 2026-05-07 19:42 | 52.89243 | 11.57889 | 23468 ft | 357 kts | 321° |
| 2026-05-07 19:43 | 52.91219 | 11.55347 | 22597 ft | 353 kts | 321° |
| 2026-05-07 19:43 | 52.93122 | 11.52900 | 21796 ft | 349 kts | 321° |
| 2026-05-07 19:43 | 52.95034 | 11.50449 | 21018 ft | 345 kts | 321° |
| 2026-05-07 19:43 | 52.96924 | 11.48030 | 20256 ft | 342 kts | 322° |
| 2026-05-07 19:44 | 52.98796 | 11.45629 | 19505 ft | 339 kts | 321° |
| 2026-05-07 19:44 | 53.00655 | 11.43236 | 18854 ft | 339 kts | 321° |
| 2026-05-07 19:44 | 53.02508 | 11.40847 | 18477 ft | 336 kts | 321° |
| 2026-05-07 19:44 | 53.04351 | 11.38471 | 18051 ft | 334 kts | 321° |
| 2026-05-07 19:45 | 53.06178 | 11.36110 | 17625 ft | 332 kts | 321° |
| 2026-05-07 19:45 | 53.07997 | 11.33761 | 17211 ft | 330 kts | 322° |
| 2026-05-07 19:45 | 53.09809 | 11.31433 | 16815 ft | 328 kts | 322° |
| 2026-05-07 19:45 | 53.11611 | 11.29122 | 16428 ft | 326 kts | 322° |
| 2026-05-07 19:46 | 53.13421 | 11.26869 | 16051 ft | 324 kts | 323° |
| 2026-05-07 19:46 | 53.14642 | 11.25432 | 15792 ft | 324 kts | 324° |
| 2026-05-07 19:46 | 53.17117 | 11.22609 | 15299 ft | 321 kts | 325° |
| 2026-05-07 19:46 | 53.18341 | 11.21227 | 15060 ft | 320 kts | 325° |
| 2026-05-07 19:47 | 53.20181 | 11.19146 | 14696 ft | 319 kts | 325° |
| 2026-05-07 19:47 | 53.22010 | 11.17063 | 14353 ft | 317 kts | 325° |
| 2026-05-07 19:47 | 53.23822 | 11.14981 | 14015 ft | 316 kts | 325° |
| 2026-05-07 19:47 | 53.25644 | 11.12876 | 13643 ft | 314 kts | 325° |
| 2026-05-07 19:48 | 53.27408 | 11.10829 | 13274 ft | 312 kts | 325° |
| 2026-05-07 19:48 | 53.29184 | 11.08766 | 12889 ft | 310 kts | 325° |
| 2026-05-07 19:48 | 53.30952 | 11.06712 | 12507 ft | 309 kts | 325° |
| 2026-05-07 19:48 | 53.32709 | 11.04669 | 12135 ft | 307 kts | 325° |
| 2026-05-07 19:49 | 53.34445 | 11.02607 | 11762 ft | 305 kts | 320° |
| 2026-05-07 19:49 | 53.35969 | 11.00227 | 11622 ft | 294 kts | 315° |
| 2026-05-07 19:49 | 53.37362 | 10.97883 | 11488 ft | 274 kts | 315° |
| 2026-05-07 19:49 | 53.38662 | 10.95678 | 11255 ft | 260 kts | 315° |
| 2026-05-07 19:50 | 53.39925 | 10.93527 | 10927 ft | 258 kts | 315° |
| 2026-05-07 19:50 | 53.41173 | 10.91397 | 10665 ft | 256 kts | 315° |
| 2026-05-07 19:50 | 53.42413 | 10.89274 | 10379 ft | 254 kts | 315° |
| 2026-05-07 19:50 | 53.43645 | 10.87157 | 10083 ft | 253 kts | 315° |
| 2026-05-07 19:51 | 53.44872 | 10.85039 | 9737 ft | 253 kts | 315° |
| 2026-05-07 19:51 | 53.46088 | 10.82917 | 9401 ft | 252 kts | 315° |
| 2026-05-07 19:51 | 53.47304 | 10.80785 | 9071 ft | 251 kts | 314° |
| 2026-05-07 19:51 | 53.48509 | 10.78676 | 8748 ft | 250 kts | 315° |
| 2026-05-07 19:52 | 53.49703 | 10.76579 | 8416 ft | 248 kts | 315° |
| 2026-05-07 19:52 | 53.50892 | 10.74482 | 8089 ft | 247 kts | 315° |
| 2026-05-07 19:52 | 53.52069 | 10.72394 | 7750 ft | 246 kts | 315° |
| 2026-05-07 19:52 | 53.53238 | 10.70301 | 7416 ft | 245 kts | 314° |
| 2026-05-07 19:53 | 53.54398 | 10.68222 | 7170 ft | 242 kts | 315° |
| 2026-05-07 19:53 | 53.55550 | 10.66151 | 7135 ft | 243 kts | 314° |
| 2026-05-07 19:53 | 53.56699 | 10.64055 | 7032 ft | 243 kts | 310° |
| 2026-05-07 19:53 | 53.57545 | 10.61646 | 6675 ft | 243 kts | 296° |
| 2026-05-07 19:54 | 53.58244 | 10.59025 | 6133 ft | 242 kts | 295° |
| 2026-05-07 19:54 | 53.58899 | 10.56466 | 5589 ft | 241 kts | 294° |
| 2026-05-07 19:54 | 53.59560 | 10.53882 | 5096 ft | 239 kts | 294° |
| 2026-05-07 19:54 | 53.60215 | 10.51325 | 4992 ft | 239 kts | 294° |
| 2026-05-07 19:55 | 53.60879 | 10.48740 | 4998 ft | 241 kts | 294° |
| 2026-05-07 19:55 | 53.61546 | 10.46135 | 5000 ft | 242 kts | 293° |
| 2026-05-07 19:55 | 53.61826 | 10.43369 | 4998 ft | 242 kts | 264° |
| 2026-05-07 19:55 | 53.61507 | 10.40585 | 4996 ft | 242 kts | 255° |
| 2026-05-07 19:56 | 53.61095 | 10.37834 | 4993 ft | 242 kts | 255° |
| 2026-05-07 19:56 | 53.60679 | 10.35091 | 4991 ft | 242 kts | 255° |
| 2026-05-07 19:56 | 53.60260 | 10.32353 | 4992 ft | 242 kts | 254° |
| 2026-05-07 19:56 | 53.59841 | 10.29604 | 5002 ft | 242 kts | 255° |
| 2026-05-07 19:57 | 53.59420 | 10.26862 | 5002 ft | 242 kts | 254° |
| 2026-05-07 19:57 | 53.58997 | 10.24122 | 5004 ft | 242 kts | 254° |
| 2026-05-07 19:57 | 53.58573 | 10.21376 | 5006 ft | 242 kts | 254° |
| 2026-05-07 19:57 | 53.58149 | 10.18636 | 5007 ft | 242 kts | 254° |
| 2026-05-07 19:58 | 53.57725 | 10.15898 | 5009 ft | 242 kts | 254° |
| 2026-05-07 19:58 | 53.57303 | 10.13154 | 5009 ft | 242 kts | 255° |
| 2026-05-07 19:58 | 53.56881 | 10.10414 | 5010 ft | 242 kts | 254° |
| 2026-05-07 19:58 | 53.56433 | 10.07687 | 5010 ft | 243 kts | 248° |
| 2026-05-07 19:59 | 53.55525 | 10.05325 | 5009 ft | 241 kts | 227° |
| 2026-05-07 19:59 | 53.54391 | 10.03250 | 5010 ft | 241 kts | 225° |
| 2026-05-07 19:59 | 53.53230 | 10.01214 | 5009 ft | 241 kts | 224° |
| 2026-05-07 19:59 | 53.52067 | 9.99184 | 5009 ft | 241 kts | 224° |
| 2026-05-07 20:00 | 53.50903 | 9.97155 | 5007 ft | 241 kts | 224° |
| 2026-05-07 20:00 | 53.49738 | 9.95127 | 5010 ft | 241 kts | 224° |
| 2026-05-07 20:00 | 53.48573 | 9.93096 | 5010 ft | 241 kts | 224° |
| 2026-05-07 20:00 | 53.47424 | 9.91095 | 5010 ft | 241 kts | 224° |
| 2026-05-07 20:01 | 53.46263 | 9.89077 | 5013 ft | 241 kts | 224° |
| 2026-05-07 20:01 | 53.45095 | 9.87050 | 5011 ft | 241 kts | 224° |
| 2026-05-07 20:01 | 53.43929 | 9.85026 | 5010 ft | 241 kts | 224° |
| 2026-05-07 20:01 | 53.42764 | 9.83008 | 4979 ft | 241 kts | 224° |
| 2026-05-07 20:02 | 53.41598 | 9.80990 | 4983 ft | 241 kts | 224° |
| 2026-05-07 20:02 | 53.40432 | 9.78973 | 4983 ft | 241 kts | 224° |
| 2026-05-07 20:02 | 53.39264 | 9.76954 | 4983 ft | 241 kts | 224° |
| 2026-05-07 20:02 | 53.38097 | 9.74936 | 4983 ft | 241 kts | 224° |
| 2026-05-07 20:03 | 53.37110 | 9.72683 | 4982 ft | 242 kts | 248° |
| 2026-05-07 20:03 | 53.36746 | 9.69937 | 4982 ft | 239 kts | 262° |
| 2026-05-07 20:03 | 53.36563 | 9.67239 | 4874 ft | 228 kts | 264° |
| 2026-05-07 20:03 | 53.36539 | 9.64634 | 4669 ft | 222 kts | 284° |
| 2026-05-07 20:04 | 53.37257 | 9.62426 | 4378 ft | 216 kts | 316° |
| 2026-05-07 20:04 | 53.38375 | 9.60749 | 4065 ft | 216 kts | 323° |
| 2026-05-07 20:04 | 53.39651 | 9.59489 | 3763 ft | 211 kts | 350° |
| 2026-05-07 20:04 | 53.41060 | 9.59619 | 3477 ft | 202 kts | 25° |
| 2026-05-07 20:05 | 53.42320 | 9.60661 | 3159 ft | 202 kts | 33° |
| 2026-05-07 20:05 | 53.43522 | 9.61847 | 2989 ft | 200 kts | 34° |
| 2026-05-07 20:05 | 53.44720 | 9.63060 | 3007 ft | 202 kts | 34° |
| 2026-05-07 20:05 | 53.45815 | 9.64464 | 3008 ft | 200 kts | 47° |
| 2026-05-07 20:06 | 53.46764 | 9.66171 | 3009 ft | 200 kts | 51° |
| 2026-05-07 20:06 | 53.47670 | 9.67946 | 3012 ft | 200 kts | 52° |
| 2026-05-07 20:06 | 53.48565 | 9.69730 | 3009 ft | 200 kts | 52° |
| 2026-05-07 20:06 | 53.49458 | 9.71515 | 3011 ft | 200 kts | 52° |
| 2026-05-07 20:07 | 53.50353 | 9.73305 | 3013 ft | 200 kts | 52° |
| 2026-05-07 20:07 | 53.51246 | 9.75094 | 3010 ft | 200 kts | 52° |
| 2026-05-07 20:07 | 53.52141 | 9.76886 | 3011 ft | 200 kts | 52° |
| 2026-05-07 20:07 | 53.53035 | 9.78678 | 3003 ft | 201 kts | 52° |
| 2026-05-07 20:08 | 53.53943 | 9.80502 | 2646 ft | 207 kts | 52° |
| 2026-05-07 20:08 | 53.54876 | 9.82376 | 2304 ft | 210 kts | 52° |
| 2026-05-07 20:08 | 53.55817 | 9.84265 | 2001 ft | 210 kts | 52° |
| 2026-05-07 20:08 | 53.56755 | 9.86152 | 1722 ft | 209 kts | 52° |
| 2026-05-07 20:09 | 53.57653 | 9.87956 | 1436 ft | 192 kts | 52° |
| 2026-05-07 20:09 | 53.58472 | 9.89605 | 1172 ft | 176 kts | 52° |
| 2026-05-07 20:09 | 53.59215 | 9.91101 | 958 ft | 155 kts | 52° |
| 2026-05-07 20:10 | 53.60463 | 9.93619 | 560 ft | 132 kts | 51° |
| 2026-05-07 20:10 | 53.61046 | 9.94800 | 380 ft | 130 kts | 51° |
| 2026-05-07 20:10 | 53.61628 | 9.95971 | 210 ft | 130 kts | 50° |
| 2026-05-07 20:10 | 53.62203 | 9.97135 | 55 ft | 128 kts | 50° |
| 2026-05-07 20:11 | 53.62709 | 9.98158 | 42 ft | 85 kts | 50° |
| 2026-05-07 20:11 | 53.62972 | 9.98692 | 45 ft | 48 kts | 50° |
| 2026-05-07 20:11 | 53.63092 | 9.99084 | 46 ft | 22 kts | 88° |
| 2026-05-07 20:11 | 53.63088 | 9.99141 | 46 ft | 1 kts | 98° |
| 2026-05-07 20:12 | 53.63087 | 9.99157 | 46 ft | 6 kts | 98° |
| 2026-05-07 20:12 | 53.63080 | 9.99284 | 47 ft | 12 kts | 86° |
| 2026-05-07 20:12 | 53.63110 | 9.99428 | 46 ft | 15 kts | 59° |
| 2026-05-07 20:12 | 53.63173 | 9.99579 | 46 ft | 17 kts | 52° |
| 2026-05-07 20:13 | 53.63224 | 9.99676 | 48 ft | 6 kts | 48° |
| 2026-05-07 20:13 | 53.63239 | 9.99703 | 48 ft | 2 kts | 46° |
| 2026-05-07 20:13 | 53.63247 | 9.99723 | 48 ft | 3 kts | 63° |
| 2026-05-07 20:13 | 53.63220 | 9.99765 | 48 ft | 6 kts | 155° |
| 2026-05-07 20:14 | 53.63155 | 9.99818 | 48 ft | 14 kts | 153° |
| 2026-05-07 20:14 | 53.63079 | 9.99882 | 48 ft | 11 kts | 153° |
| 2026-05-07 20:14 | 53.63016 | 9.99936 | 48 ft | 10 kts | 153° |
| 2026-05-07 20:14 | 53.62961 | 9.99988 | 48 ft | 9 kts | 142° |
| 2026-05-07 20:15 | 53.63007 | 10.00119 | 48 ft | 20 kts | 34° |
| 2026-05-07 20:15 | 53.63103 | 10.00193 | 48 ft | 6 kts | 4° |
| 2026-05-07 20:15 | 53.63119 | 10.00195 | 48 ft | 0 kts | 6° |
| 2026-05-07 20:16 | 53.63121 | 10.00195 | 48 ft | 3 kts | 359° |
| 2026-05-07 20:16 | 53.63125 | 10.00194 | 48 ft | 0 kts | 355° |
| 2026-05-07 20:17 | 53.63128 | 10.00193 | 45 ft | 2 kts | 355° |
| 2026-05-07 20:17 | 53.63137 | 10.00192 | 48 ft | 1 kts | 355° |
| 2026-05-07 20:17 | 53.63142 | 10.00191 | 48 ft | 1 kts | 355° |
| 2026-05-07 20:17 | 53.63181 | 10.00217 | 47 ft | 7 kts | 38° |
| 2026-05-07 20:18 | 53.63202 | 10.00286 | 48 ft | 7 kts | 85° |
| 2026-05-07 20:18 | 53.63205 | 10.00339 | 48 ft | 3 kts | 87° |
| 2026-05-07 20:18 | 53.63206 | 10.00361 | 48 ft | 1 kts | 85° |
| 2026-05-07 20:18 | 53.63206 | 10.00366 | 48 ft | 0 kts | 86° |
| 2026-05-07 20:19 | 53.63206 | 10.00368 | 48 ft | 0 kts | 86° |
| 2026-05-07 20:19 | 53.63206 | 10.00369 | 48 ft | 0 kts | 86° |